sensor_id;sensor_type;location;lat;lon;timestamp;temperature;humidity
3921;DHT22;1975;49.356;6.816;2023-02-28T00:00:30;3.20;99.90
3921;DHT22;1975;49.356;6.816;2023-02-28T00:02:56;3.20;99.90
3921;DHT22;1975;49.356;6.816;2023-02-28T00:05:22;3.20;99.90
3921;DHT22;1975;49.356;6.816;2023-02-28T00:07:48;3.20;99.90
3921;DHT22;1975;49.356;6.816;2023-02-28T00:10:15;3.20;99.90
3921;DHT22;1975;49.356;6.816;2023-02-28T00:12:44;3.20;99.90
3921;DHT22;1975;49.356;6.816;2023-02-28T00:15:10;3.20;99.90
3921;DHT22;1975;49.356;6.816;2023-02-28T00:17:36;3.20;99.90
3921;DHT22;1975;49.356;6.816;2023-02-28T00:20:01;3.20;99.90
3921;DHT22;1975;49.356;6.816;2023-02-28T00:22:27;3.10;99.90
3921;DHT22;1975;49.356;6.816;2023-02-28T00:24:53;3.20;99.90
3921;DHT22;1975;49.356;6.816;2023-02-28T00:27:18;3.10;99.90
3921;DHT22;1975;49.356;6.816;2023-02-28T00:29:45;3.20;99.90
3921;DHT22;1975;49.356;6.816;2023-02-28T00:32:11;3.10;99.90
3921;DHT22;1975;49.356;6.816;2023-02-28T00:34:36;3.10;99.90
3921;DHT22;1975;49.356;6.816;2023-02-28T00:37:06;3.10;99.90
3921;DHT22;1975;49.356;6.816;2023-02-28T00:39:35;3.10;99.90
3921;DHT22;1975;49.356;6.816;2023-02-28T00:42:01;3.10;99.90
3921;DHT22;1975;49.356;6.816;2023-02-28T00:44:27;3.10;99.90
3921;DHT22;1975;49.356;6.816;2023-02-28T00:46:53;3.10;99.90
3921;DHT22;1975;49.356;6.816;2023-02-28T00:49:19;3.10;99.90
3921;DHT22;1975;49.356;6.816;2023-02-28T00:51:45;3.10;99.90
3921;DHT22;1975;49.356;6.816;2023-02-28T00:54:11;3.10;99.90
3921;DHT22;1975;49.356;6.816;2023-02-28T00:56:36;3.10;99.90
3921;DHT22;1975;49.356;6.816;2023-02-28T00:59:02;3.10;99.90
3921;DHT22;1975;49.356;6.816;2023-02-28T01:01:27;3.10;99.90
3921;DHT22;1975;49.356;6.816;2023-02-28T01:03:53;3.10;99.90
3921;DHT22;1975;49.356;6.816;2023-02-28T01:06:18;3.10;99.90
3921;DHT22;1975;49.356;6.816;2023-02-28T01:08:44;3.10;99.90
3921;DHT22;1975;49.356;6.816;2023-02-28T01:11:10;3.10;99.90
3921;DHT22;1975;49.356;6.816;2023-02-28T01:13:36;3.00;99.90
3921;DHT22;1975;49.356;6.816;2023-02-28T01:16:01;3.10;99.90
3921;DHT22;1975;49.356;6.816;2023-02-28T01:18:27;3.00;99.90
3921;DHT22;1975;49.356;6.816;2023-02-28T01:20:53;3.00;99.90
3921;DHT22;1975;49.356;6.816;2023-02-28T01:23:19;3.10;99.90
3921;DHT22;1975;49.356;6.816;2023-02-28T01:25:46;3.10;99.90
3921;DHT22;1975;49.356;6.816;2023-02-28T01:28:12;3.00;99.90
3921;DHT22;1975;49.356;6.816;2023-02-28T01:30:37;3.00;99.90
3921;DHT22;1975;49.356;6.816;2023-02-28T01:33:03;3.00;99.90
3921;DHT22;1975;49.356;6.816;2023-02-28T01:35:28;3.00;99.90
3921;DHT22;1975;49.356;6.816;2023-02-28T01:37:53;3.00;99.90
3921;DHT22;1975;49.356;6.816;2023-02-28T01:40:19;3.00;99.90
3921;DHT22;1975;49.356;6.816;2023-02-28T01:42:44;3.00;99.90
3921;DHT22;1975;49.356;6.816;2023-02-28T01:45:43;3.00;99.90
3921;DHT22;1975;49.356;6.816;2023-02-28T01:48:02;3.00;99.90
3921;DHT22;1975;49.356;6.816;2023-02-28T01:50:29;3.00;99.90
3921;DHT22;1975;49.356;6.816;2023-02-28T01:52:57;3.00;99.90
3921;DHT22;1975;49.356;6.816;2023-02-28T01:55:25;3.00;99.90
3921;DHT22;1975;49.356;6.816;2023-02-28T01:57:55;3.00;99.90
3921;DHT22;1975;49.356;6.816;2023-02-28T02:00:22;3.00;99.90
3921;DHT22;1975;49.356;6.816;2023-02-28T02:02:49;3.00;99.90
3921;DHT22;1975;49.356;6.816;2023-02-28T02:05:18;3.00;99.90
3921;DHT22;1975;49.356;6.816;2023-02-28T02:07:44;3.00;99.90
3921;DHT22;1975;49.356;6.816;2023-02-28T02:10:15;3.00;99.90
3921;DHT22;1975;49.356;6.816;2023-02-28T02:12:46;3.00;99.90
3921;DHT22;1975;49.356;6.816;2023-02-28T02:15:16;2.90;99.90
3921;DHT22;1975;49.356;6.816;2023-02-28T02:17:45;3.00;99.90
3921;DHT22;1975;49.356;6.816;2023-02-28T02:22:57;2.90;99.90
3921;DHT22;1975;49.356;6.816;2023-02-28T02:36:33;2.90;99.90
3921;DHT22;1975;49.356;6.816;2023-02-28T02:41:03;2.90;99.90
3921;DHT22;1975;49.356;6.816;2023-02-28T02:43:32;2.90;99.90
3921;DHT22;1975;49.356;6.816;2023-02-28T02:45:59;2.90;99.90
3921;DHT22;1975;49.356;6.816;2023-02-28T02:48:29;2.90;99.90
3921;DHT22;1975;49.356;6.816;2023-02-28T02:50:56;2.90;99.90
3921;DHT22;1975;49.356;6.816;2023-02-28T02:53:28;2.90;99.90
3921;DHT22;1975;49.356;6.816;2023-02-28T02:55:55;2.90;99.90
3921;DHT22;1975;49.356;6.816;2023-02-28T02:58:25;2.80;99.90
3921;DHT22;1975;49.356;6.816;2023-02-28T03:00:55;2.90;99.90
3921;DHT22;1975;49.356;6.816;2023-02-28T03:03:21;2.90;99.90
3921;DHT22;1975;49.356;6.816;2023-02-28T03:05:54;2.80;99.90
3921;DHT22;1975;49.356;6.816;2023-02-28T03:08:20;2.80;99.90
3921;DHT22;1975;49.356;6.816;2023-02-28T03:10:46;2.80;99.90
3921;DHT22;1975;49.356;6.816;2023-02-28T03:15:51;2.80;99.90
3921;DHT22;1975;49.356;6.816;2023-02-28T03:18:24;2.80;99.90
3921;DHT22;1975;49.356;6.816;2023-02-28T03:23:30;2.80;99.90
3921;DHT22;1975;49.356;6.816;2023-02-28T03:26:04;2.80;99.90
3921;DHT22;1975;49.356;6.816;2023-02-28T03:33:27;2.80;99.90
3921;DHT22;1975;49.356;6.816;2023-02-28T03:35:54;2.80;99.90
3921;DHT22;1975;49.356;6.816;2023-02-28T03:38:29;2.70;99.90
3921;DHT22;1975;49.356;6.816;2023-02-28T03:41:04;2.70;99.90
3921;DHT22;1975;49.356;6.816;2023-02-28T03:43:32;2.80;99.90
3921;DHT22;1975;49.356;6.816;2023-02-28T03:46:00;2.80;99.90
3921;DHT22;1975;49.356;6.816;2023-02-28T03:48:30;2.80;99.90
3921;DHT22;1975;49.356;6.816;2023-02-28T03:50:57;2.80;99.90
3921;DHT22;1975;49.356;6.816;2023-02-28T03:53:27;2.80;99.90
3921;DHT22;1975;49.356;6.816;2023-02-28T03:55:55;2.80;99.90
3921;DHT22;1975;49.356;6.816;2023-02-28T03:58:24;2.70;99.90
3921;DHT22;1975;49.356;6.816;2023-02-28T04:00:55;2.70;99.90
3921;DHT22;1975;49.356;6.816;2023-02-28T04:03:22;2.70;99.90
3921;DHT22;1975;49.356;6.816;2023-02-28T04:05:54;2.70;99.90
3921;DHT22;1975;49.356;6.816;2023-02-28T04:08:21;2.70;99.90
3921;DHT22;1975;49.356;6.816;2023-02-28T04:10:48;2.70;99.90
3921;DHT22;1975;49.356;6.816;2023-02-28T04:13:16;2.70;99.90
3921;DHT22;1975;49.356;6.816;2023-02-28T04:15:41;2.70;99.90
3921;DHT22;1975;49.356;6.816;2023-02-28T04:18:07;2.60;99.90
3921;DHT22;1975;49.356;6.816;2023-02-28T04:20:32;2.60;99.90
3921;DHT22;1975;49.356;6.816;2023-02-28T04:22:58;2.70;99.90
3921;DHT22;1975;49.356;6.816;2023-02-28T04:25:23;2.60;99.90
3921;DHT22;1975;49.356;6.816;2023-02-28T04:27:49;2.60;99.90
3921;DHT22;1975;49.356;6.816;2023-02-28T04:30:14;2.60;99.90
3921;DHT22;1975;49.356;6.816;2023-02-28T04:32:40;2.60;99.90
3921;DHT22;1975;49.356;6.816;2023-02-28T04:35:05;2.60;99.90
3921;DHT22;1975;49.356;6.816;2023-02-28T04:37:31;2.60;99.90
3921;DHT22;1975;49.356;6.816;2023-02-28T04:40:00;2.60;99.90
3921;DHT22;1975;49.356;6.816;2023-02-28T04:42:25;2.60;99.90
3921;DHT22;1975;49.356;6.816;2023-02-28T04:44:51;2.60;99.90
3921;DHT22;1975;49.356;6.816;2023-02-28T04:47:17;2.60;99.90
3921;DHT22;1975;49.356;6.816;2023-02-28T04:49:42;2.60;99.90
3921;DHT22;1975;49.356;6.816;2023-02-28T04:52:08;2.60;99.90
3921;DHT22;1975;49.356;6.816;2023-02-28T04:54:35;2.60;99.90
3921;DHT22;1975;49.356;6.816;2023-02-28T04:57:00;2.60;99.90
3921;DHT22;1975;49.356;6.816;2023-02-28T04:59:26;2.60;99.90
3921;DHT22;1975;49.356;6.816;2023-02-28T05:01:52;2.50;99.90
3921;DHT22;1975;49.356;6.816;2023-02-28T05:04:17;2.50;99.90
3921;DHT22;1975;49.356;6.816;2023-02-28T05:06:43;2.50;99.90
3921;DHT22;1975;49.356;6.816;2023-02-28T05:09:09;2.50;99.90
3921;DHT22;1975;49.356;6.816;2023-02-28T05:11:36;2.50;99.90
3921;DHT22;1975;49.356;6.816;2023-02-28T05:14:04;2.50;99.90
3921;DHT22;1975;49.356;6.816;2023-02-28T05:16:30;2.50;99.90
3921;DHT22;1975;49.356;6.816;2023-02-28T05:18:56;2.50;99.90
3921;DHT22;1975;49.356;6.816;2023-02-28T05:23:57;2.50;99.90
3921;DHT22;1975;49.356;6.816;2023-02-28T05:26:23;2.50;99.90
3921;DHT22;1975;49.356;6.816;2023-02-28T05:28:49;2.50;99.90
3921;DHT22;1975;49.356;6.816;2023-02-28T05:31:14;2.40;99.90
3921;DHT22;1975;49.356;6.816;2023-02-28T05:33:40;2.50;99.90
3921;DHT22;1975;49.356;6.816;2023-02-28T05:36:06;2.40;99.90
3921;DHT22;1975;49.356;6.816;2023-02-28T05:38:31;2.50;99.90
3921;DHT22;1975;49.356;6.816;2023-02-28T05:40:57;2.50;99.90
3921;DHT22;1975;49.356;6.816;2023-02-28T05:43:22;2.40;99.90
3921;DHT22;1975;49.356;6.816;2023-02-28T05:45:48;2.40;99.90
3921;DHT22;1975;49.356;6.816;2023-02-28T05:48:14;2.40;99.90
3921;DHT22;1975;49.356;6.816;2023-02-28T05:50:39;2.40;99.90
3921;DHT22;1975;49.356;6.816;2023-02-28T05:53:05;2.40;99.90
3921;DHT22;1975;49.356;6.816;2023-02-28T05:55:30;2.40;99.90
3921;DHT22;1975;49.356;6.816;2023-02-28T05:57:55;2.40;99.90
3921;DHT22;1975;49.356;6.816;2023-02-28T06:00:21;2.40;99.90
3921;DHT22;1975;49.356;6.816;2023-02-28T06:02:47;2.40;99.90
3921;DHT22;1975;49.356;6.816;2023-02-28T06:05:14;2.40;99.90
3921;DHT22;1975;49.356;6.816;2023-02-28T06:07:39;2.40;99.90
3921;DHT22;1975;49.356;6.816;2023-02-28T06:10:05;2.40;99.90
3921;DHT22;1975;49.356;6.816;2023-02-28T06:12:31;2.40;99.90
3921;DHT22;1975;49.356;6.816;2023-02-28T06:14:56;2.30;99.90
3921;DHT22;1975;49.356;6.816;2023-02-28T06:17:22;2.30;99.90
3921;DHT22;1975;49.356;6.816;2023-02-28T06:19:47;2.40;99.90
3921;DHT22;1975;49.356;6.816;2023-02-28T06:22:13;2.40;99.90
3921;DHT22;1975;49.356;6.816;2023-02-28T06:24:38;2.30;99.90
3921;DHT22;1975;49.356;6.816;2023-02-28T06:27:04;2.40;99.90
3921;DHT22;1975;49.356;6.816;2023-02-28T06:29:31;2.30;99.90
3921;DHT22;1975;49.356;6.816;2023-02-28T06:31:56;2.40;99.90
3921;DHT22;1975;49.356;6.816;2023-02-28T06:34:22;2.30;99.90
3921;DHT22;1975;49.356;6.816;2023-02-28T06:36:49;2.40;99.90
3921;DHT22;1975;49.356;6.816;2023-02-28T06:39:15;2.30;99.90
3921;DHT22;1975;49.356;6.816;2023-02-28T06:41:40;2.30;99.90
3921;DHT22;1975;49.356;6.816;2023-02-28T06:44:12;2.30;99.90
3921;DHT22;1975;49.356;6.816;2023-02-28T06:46:39;2.30;99.90
3921;DHT22;1975;49.356;6.816;2023-02-28T06:49:05;2.30;99.90
3921;DHT22;1975;49.356;6.816;2023-02-28T06:51:34;2.30;99.90
3921;DHT22;1975;49.356;6.816;2023-02-28T06:54:00;2.30;99.90
3921;DHT22;1975;49.356;6.816;2023-02-28T06:56:25;2.30;99.90
3921;DHT22;1975;49.356;6.816;2023-02-28T06:58:50;2.30;99.90
3921;DHT22;1975;49.356;6.816;2023-02-28T07:01:18;2.30;99.90
3921;DHT22;1975;49.356;6.816;2023-02-28T07:03:44;2.30;99.90
3921;DHT22;1975;49.356;6.816;2023-02-28T07:06:10;2.30;99.90
3921;DHT22;1975;49.356;6.816;2023-02-28T07:08:35;2.40;99.90
3921;DHT22;1975;49.356;6.816;2023-02-28T07:11:01;2.30;99.90
3921;DHT22;1975;49.356;6.816;2023-02-28T07:13:27;2.30;99.90
3921;DHT22;1975;49.356;6.816;2023-02-28T07:15:53;2.40;99.90
3921;DHT22;1975;49.356;6.816;2023-02-28T07:18:18;2.40;99.90
3921;DHT22;1975;49.356;6.816;2023-02-28T07:20:44;2.40;99.90
3921;DHT22;1975;49.356;6.816;2023-02-28T07:23:10;2.40;99.90
3921;DHT22;1975;49.356;6.816;2023-02-28T07:25:35;2.40;99.90
3921;DHT22;1975;49.356;6.816;2023-02-28T07:28:01;2.40;99.90
3921;DHT22;1975;49.356;6.816;2023-02-28T07:30:26;2.40;99.90
3921;DHT22;1975;49.356;6.816;2023-02-28T07:32:51;2.40;99.90
3921;DHT22;1975;49.356;6.816;2023-02-28T07:35:17;2.40;99.90
3921;DHT22;1975;49.356;6.816;2023-02-28T07:37:42;2.40;99.90
3921;DHT22;1975;49.356;6.816;2023-02-28T07:40:09;2.40;99.90
3921;DHT22;1975;49.356;6.816;2023-02-28T07:42:39;2.40;99.90
3921;DHT22;1975;49.356;6.816;2023-02-28T07:45:05;2.40;99.90
3921;DHT22;1975;49.356;6.816;2023-02-28T07:47:31;2.50;99.90
3921;DHT22;1975;49.356;6.816;2023-02-28T07:49:57;2.40;99.90
3921;DHT22;1975;49.356;6.816;2023-02-28T07:52:22;2.40;99.90
3921;DHT22;1975;49.356;6.816;2023-02-28T07:54:51;2.40;99.90
3921;DHT22;1975;49.356;6.816;2023-02-28T07:57:17;2.40;99.90
3921;DHT22;1975;49.356;6.816;2023-02-28T07:59:43;2.40;99.90
3921;DHT22;1975;49.356;6.816;2023-02-28T08:02:11;2.40;99.90
3921;DHT22;1975;49.356;6.816;2023-02-28T08:04:37;2.40;99.90
3921;DHT22;1975;49.356;6.816;2023-02-28T08:07:03;2.40;99.90
3921;DHT22;1975;49.356;6.816;2023-02-28T08:09:28;2.40;99.90
3921;DHT22;1975;49.356;6.816;2023-02-28T08:11:55;2.40;99.90
3921;DHT22;1975;49.356;6.816;2023-02-28T08:14:20;2.40;99.90
3921;DHT22;1975;49.356;6.816;2023-02-28T08:16:45;2.50;99.90
3921;DHT22;1975;49.356;6.816;2023-02-28T08:19:11;2.50;99.90
3921;DHT22;1975;49.356;6.816;2023-02-28T08:21:36;2.50;99.90
3921;DHT22;1975;49.356;6.816;2023-02-28T08:24:02;2.40;99.90
3921;DHT22;1975;49.356;6.816;2023-02-28T08:26:27;2.50;99.90
3921;DHT22;1975;49.356;6.816;2023-02-28T08:28:53;2.50;99.90
3921;DHT22;1975;49.356;6.816;2023-02-28T08:31:18;2.50;99.90
3921;DHT22;1975;49.356;6.816;2023-02-28T08:33:44;2.50;99.90
3921;DHT22;1975;49.356;6.816;2023-02-28T08:36:10;2.50;99.90
3921;DHT22;1975;49.356;6.816;2023-02-28T08:38:36;2.60;99.90
3921;DHT22;1975;49.356;6.816;2023-02-28T08:41:03;2.60;99.90
3921;DHT22;1975;49.356;6.816;2023-02-28T08:43:31;2.60;99.90
3921;DHT22;1975;49.356;6.816;2023-02-28T08:45:56;2.60;99.90
3921;DHT22;1975;49.356;6.816;2023-02-28T08:48:22;2.60;99.90
3921;DHT22;1975;49.356;6.816;2023-02-28T08:51:21;2.70;99.90
3921;DHT22;1975;49.356;6.816;2023-02-28T08:53:41;2.70;99.90
3921;DHT22;1975;49.356;6.816;2023-02-28T08:56:08;2.70;99.90
3921;DHT22;1975;49.356;6.816;2023-02-28T08:58:33;2.70;99.90
3921;DHT22;1975;49.356;6.816;2023-02-28T09:00:59;2.70;99.90
3921;DHT22;1975;49.356;6.816;2023-02-28T09:03:27;2.70;99.90
3921;DHT22;1975;49.356;6.816;2023-02-28T09:05:53;2.70;99.90
3921;DHT22;1975;49.356;6.816;2023-02-28T09:08:19;2.70;99.90
3921;DHT22;1975;49.356;6.816;2023-02-28T09:10:44;2.70;99.90
3921;DHT22;1975;49.356;6.816;2023-02-28T09:13:10;2.70;99.90
3921;DHT22;1975;49.356;6.816;2023-02-28T09:15:37;2.70;99.90
3921;DHT22;1975;49.356;6.816;2023-02-28T09:18:02;2.70;99.90
3921;DHT22;1975;49.356;6.816;2023-02-28T09:20:28;2.70;99.90
3921;DHT22;1975;49.356;6.816;2023-02-28T09:22:53;2.70;99.90
3921;DHT22;1975;49.356;6.816;2023-02-28T09:25:18;2.70;99.90
3921;DHT22;1975;49.356;6.816;2023-02-28T09:27:44;2.70;99.90
3921;DHT22;1975;49.356;6.816;2023-02-28T09:30:10;2.70;99.90
3921;DHT22;1975;49.356;6.816;2023-02-28T09:32:36;2.70;99.90
3921;DHT22;1975;49.356;6.816;2023-02-28T09:35:01;2.70;99.90
3921;DHT22;1975;49.356;6.816;2023-02-28T09:37:27;2.70;99.90
3921;DHT22;1975;49.356;6.816;2023-02-28T09:39:54;2.70;99.90
3921;DHT22;1975;49.356;6.816;2023-02-28T09:42:23;2.70;99.90
3921;DHT22;1975;49.356;6.816;2023-02-28T09:44:50;2.70;99.90
3921;DHT22;1975;49.356;6.816;2023-02-28T09:47:21;2.70;99.90
3921;DHT22;1975;49.356;6.816;2023-02-28T09:49:50;2.80;99.90
3921;DHT22;1975;49.356;6.816;2023-02-28T09:52:20;2.80;99.90
3921;DHT22;1975;49.356;6.816;2023-02-28T09:54:46;2.80;99.90
3921;DHT22;1975;49.356;6.816;2023-02-28T10:00:02;2.80;99.90
3921;DHT22;1975;49.356;6.816;2023-02-28T10:05:13;2.80;99.90
3921;DHT22;1975;49.356;6.816;2023-02-28T10:07:49;2.80;99.90
3921;DHT22;1975;49.356;6.816;2023-02-28T10:10:18;2.80;99.90
3921;DHT22;1975;49.356;6.816;2023-02-28T10:12:45;2.80;99.90
3921;DHT22;1975;49.356;6.816;2023-02-28T10:15:15;2.80;99.90
3921;DHT22;1975;49.356;6.816;2023-02-28T10:17:42;2.70;99.90
3921;DHT22;1975;49.356;6.816;2023-02-28T10:20:12;2.80;99.90
3921;DHT22;1975;49.356;6.816;2023-02-28T10:22:59;2.80;99.90
3921;DHT22;1975;49.356;6.816;2023-02-28T10:25:27;2.80;99.90
3921;DHT22;1975;49.356;6.816;2023-02-28T10:27:53;2.80;99.90
3921;DHT22;1975;49.356;6.816;2023-02-28T10:30:18;2.80;99.90
3921;DHT22;1975;49.356;6.816;2023-02-28T10:32:47;2.80;99.90
3921;DHT22;1975;49.356;6.816;2023-02-28T10:35:19;2.80;99.90
3921;DHT22;1975;49.356;6.816;2023-02-28T10:37:49;2.80;99.90
3921;DHT22;1975;49.356;6.816;2023-02-28T10:42:57;2.80;99.90
3921;DHT22;1975;49.356;6.816;2023-02-28T10:45:23;2.80;99.90
3921;DHT22;1975;49.356;6.816;2023-02-28T10:47:53;2.80;99.90
3921;DHT22;1975;49.356;6.816;2023-02-28T10:53:07;2.80;99.90
3921;DHT22;1975;49.356;6.816;2023-02-28T10:55:33;2.80;99.90
3921;DHT22;1975;49.356;6.816;2023-02-28T10:57:59;2.90;99.90
3921;DHT22;1975;49.356;6.816;2023-02-28T11:00:24;2.80;99.90
3921;DHT22;1975;49.356;6.816;2023-02-28T11:02:50;2.90;99.90
3921;DHT22;1975;49.356;6.816;2023-02-28T11:05:26;2.90;99.90
3921;DHT22;1975;49.356;6.816;2023-02-28T11:07:56;2.90;99.90
3921;DHT22;1975;49.356;6.816;2023-02-28T11:10:25;2.90;99.90
3921;DHT22;1975;49.356;6.816;2023-02-28T11:12:54;2.90;99.90
3921;DHT22;1975;49.356;6.816;2023-02-28T11:17:52;2.90;99.90
3921;DHT22;1975;49.356;6.816;2023-02-28T11:20:20;2.90;99.90
3921;DHT22;1975;49.356;6.816;2023-02-28T11:22:46;2.90;99.90
3921;DHT22;1975;49.356;6.816;2023-02-28T11:25:20;3.00;99.90
3921;DHT22;1975;49.356;6.816;2023-02-28T11:27:48;2.90;99.90
3921;DHT22;1975;49.356;6.816;2023-02-28T11:32:49;3.00;99.90
3921;DHT22;1975;49.356;6.816;2023-02-28T11:35:17;3.00;99.90
3921;DHT22;1975;49.356;6.816;2023-02-28T11:37:45;3.00;99.90
3921;DHT22;1975;49.356;6.816;2023-02-28T11:40:17;3.00;99.90
3921;DHT22;1975;49.356;6.816;2023-02-28T11:48:01;3.00;99.90
3921;DHT22;1975;49.356;6.816;2023-02-28T11:53:47;3.00;99.90
3921;DHT22;1975;49.356;6.816;2023-02-28T11:56:06;3.10;99.90
3921;DHT22;1975;49.356;6.816;2023-02-28T12:03:56;3.10;99.90
3921;DHT22;1975;49.356;6.816;2023-02-28T12:11:47;3.10;99.90
3921;DHT22;1975;49.356;6.816;2023-02-28T12:14:23;3.10;99.90
3921;DHT22;1975;49.356;6.816;2023-02-28T12:21:53;3.10;99.90
3921;DHT22;1975;49.356;6.816;2023-02-28T12:27:07;3.30;99.90
3921;DHT22;1975;49.356;6.816;2023-02-28T12:32:21;3.90;99.90
3921;DHT22;1975;49.356;6.816;2023-02-28T12:34:49;3.70;99.90
3921;DHT22;1975;49.356;6.816;2023-02-28T12:37:18;3.60;99.90
3921;DHT22;1975;49.356;6.816;2023-02-28T12:39:45;3.50;99.90
3921;DHT22;1975;49.356;6.816;2023-02-28T12:42:13;3.40;99.90
3921;DHT22;1975;49.356;6.816;2023-02-28T12:47:34;3.30;99.90
3921;DHT22;1975;49.356;6.816;2023-02-28T12:50:02;3.30;99.90
3921;DHT22;1975;49.356;6.816;2023-02-28T12:52:31;3.30;99.90
3921;DHT22;1975;49.356;6.816;2023-02-28T12:55:03;3.30;99.90
3921;DHT22;1975;49.356;6.816;2023-02-28T12:57:39;3.30;99.90
3921;DHT22;1975;49.356;6.816;2023-02-28T13:00:13;3.30;99.90
3921;DHT22;1975;49.356;6.816;2023-02-28T13:13:11;3.30;99.90
3921;DHT22;1975;49.356;6.816;2023-02-28T13:15:38;3.30;99.90
3921;DHT22;1975;49.356;6.816;2023-02-28T13:18:20;3.30;99.90
3921;DHT22;1975;49.356;6.816;2023-02-28T13:20:51;3.30;99.90
3921;DHT22;1975;49.356;6.816;2023-02-28T13:23:36;3.30;99.90
3921;DHT22;1975;49.356;6.816;2023-02-28T13:26:03;3.40;99.90
3921;DHT22;1975;49.356;6.816;2023-02-28T13:31:12;3.30;99.90
3921;DHT22;1975;49.356;6.816;2023-02-28T13:38:43;3.30;99.90
3921;DHT22;1975;49.356;6.816;2023-02-28T13:44:04;3.40;99.90
3921;DHT22;1975;49.356;6.816;2023-02-28T13:46:31;3.40;99.90
3921;DHT22;1975;49.356;6.816;2023-02-28T13:49:17;3.40;99.90
3921;DHT22;1975;49.356;6.816;2023-02-28T13:51:46;3.40;99.90
3921;DHT22;1975;49.356;6.816;2023-02-28T13:56:45;3.40;99.90
3921;DHT22;1975;49.356;6.816;2023-02-28T13:59:19;3.40;99.90
3921;DHT22;1975;49.356;6.816;2023-02-28T14:01:53;3.40;99.90
3921;DHT22;1975;49.356;6.816;2023-02-28T14:07:04;3.40;99.90
3921;DHT22;1975;49.356;6.816;2023-02-28T14:09:40;3.40;99.90
3921;DHT22;1975;49.356;6.816;2023-02-28T14:14:54;3.50;99.90
3921;DHT22;1975;49.356;6.816;2023-02-28T14:17:20;3.50;99.90
3921;DHT22;1975;49.356;6.816;2023-02-28T14:19:46;3.50;99.90
3921;DHT22;1975;49.356;6.816;2023-02-28T14:25:15;3.50;99.90
3921;DHT22;1975;49.356;6.816;2023-02-28T14:33:09;3.50;99.90
3921;DHT22;1975;49.356;6.816;2023-02-28T14:35:46;3.60;99.90
3921;DHT22;1975;49.356;6.816;2023-02-28T14:38:18;3.60;99.90
3921;DHT22;1975;49.356;6.816;2023-02-28T14:40:47;3.60;99.90
3921;DHT22;1975;49.356;6.816;2023-02-28T14:43:24;3.60;99.90
3921;DHT22;1975;49.356;6.816;2023-02-28T14:45:51;3.60;99.90
3921;DHT22;1975;49.356;6.816;2023-02-28T14:48:17;3.60;99.90
3921;DHT22;1975;49.356;6.816;2023-02-28T14:50:48;3.60;99.90
3921;DHT22;1975;49.356;6.816;2023-02-28T14:53:15;3.60;99.90
3921;DHT22;1975;49.356;6.816;2023-02-28T14:55:44;3.60;99.90
3921;DHT22;1975;49.356;6.816;2023-02-28T14:58:20;3.60;99.90
3921;DHT22;1975;49.356;6.816;2023-02-28T15:00:47;3.60;99.90
3921;DHT22;1975;49.356;6.816;2023-02-28T15:03:20;3.60;99.90
3921;DHT22;1975;49.356;6.816;2023-02-28T15:05:59;3.70;99.90
3921;DHT22;1975;49.356;6.816;2023-02-28T15:08:26;3.60;99.90
3921;DHT22;1975;49.356;6.816;2023-02-28T15:16:03;3.70;99.90
3921;DHT22;1975;49.356;6.816;2023-02-28T15:18:42;3.70;99.90
3921;DHT22;1975;49.356;6.816;2023-02-28T15:21:12;3.70;99.90
3921;DHT22;1975;49.356;6.816;2023-02-28T15:23:38;3.70;99.90
3921;DHT22;1975;49.356;6.816;2023-02-28T15:26:04;3.70;99.90
3921;DHT22;1975;49.356;6.816;2023-02-28T15:28:30;3.80;99.90
3921;DHT22;1975;49.356;6.816;2023-02-28T15:31:01;3.90;99.90
3921;DHT22;1975;49.356;6.816;2023-02-28T15:33:28;4.40;99.90
3921;DHT22;1975;49.356;6.816;2023-02-28T15:36:03;5.00;99.90
3921;DHT22;1975;49.356;6.816;2023-02-28T15:38:29;5.20;99.90
3921;DHT22;1975;49.356;6.816;2023-02-28T15:40:55;5.20;99.90
3921;DHT22;1975;49.356;6.816;2023-02-28T15:43:31;5.50;99.90
3921;DHT22;1975;49.356;6.816;2023-02-28T15:46:01;6.00;99.90
3921;DHT22;1975;49.356;6.816;2023-02-28T15:50:54;5.70;99.90
3921;DHT22;1975;49.356;6.816;2023-02-28T15:53:21;5.70;99.90
3921;DHT22;1975;49.356;6.816;2023-02-28T15:55:55;5.90;99.90
3921;DHT22;1975;49.356;6.816;2023-02-28T15:58:22;6.30;99.90
3921;DHT22;1975;49.356;6.816;2023-02-28T16:01:00;6.40;99.90
3921;DHT22;1975;49.356;6.816;2023-02-28T16:03:26;6.30;99.90
3921;DHT22;1975;49.356;6.816;2023-02-28T16:08:36;6.60;99.90
3921;DHT22;1975;49.356;6.816;2023-02-28T16:11:01;6.20;99.90
3921;DHT22;1975;49.356;6.816;2023-02-28T16:13:26;5.90;99.90
3921;DHT22;1975;49.356;6.816;2023-02-28T16:15:52;5.70;99.90
3921;DHT22;1975;49.356;6.816;2023-02-28T16:18:19;5.60;99.90
3921;DHT22;1975;49.356;6.816;2023-02-28T16:20:44;5.50;99.90
3921;DHT22;1975;49.356;6.816;2023-02-28T16:23:10;5.50;99.90
3921;DHT22;1975;49.356;6.816;2023-02-28T16:25:36;5.50;99.90
3921;DHT22;1975;49.356;6.816;2023-02-28T16:28:02;5.50;99.90
3921;DHT22;1975;49.356;6.816;2023-02-28T16:30:28;5.30;99.90
3921;DHT22;1975;49.356;6.816;2023-02-28T16:32:56;5.20;99.90
3921;DHT22;1975;49.356;6.816;2023-02-28T16:35:22;5.20;99.90
3921;DHT22;1975;49.356;6.816;2023-02-28T16:37:48;5.10;99.90
3921;DHT22;1975;49.356;6.816;2023-02-28T16:40:20;5.10;99.90
3921;DHT22;1975;49.356;6.816;2023-02-28T16:42:46;5.10;99.90
3921;DHT22;1975;49.356;6.816;2023-02-28T16:45:23;5.10;99.90
3921;DHT22;1975;49.356;6.816;2023-02-28T16:47:49;5.00;99.90
3921;DHT22;1975;49.356;6.816;2023-02-28T16:50:16;5.00;99.90
3921;DHT22;1975;49.356;6.816;2023-02-28T16:52:42;5.00;99.90
3921;DHT22;1975;49.356;6.816;2023-02-28T16:55:07;5.00;99.90
3921;DHT22;1975;49.356;6.816;2023-02-28T16:57:33;5.00;99.90
3921;DHT22;1975;49.356;6.816;2023-02-28T16:59:58;4.90;99.90
3921;DHT22;1975;49.356;6.816;2023-02-28T17:02:24;4.90;99.90
3921;DHT22;1975;49.356;6.816;2023-02-28T17:04:49;4.90;99.90
3921;DHT22;1975;49.356;6.816;2023-02-28T17:07:16;4.90;99.90
3921;DHT22;1975;49.356;6.816;2023-02-28T17:09:42;4.90;99.90
3921;DHT22;1975;49.356;6.816;2023-02-28T17:12:07;4.90;99.90
3921;DHT22;1975;49.356;6.816;2023-02-28T17:14:33;4.80;99.90
3921;DHT22;1975;49.356;6.816;2023-02-28T17:16:59;4.80;99.90
3921;DHT22;1975;49.356;6.816;2023-02-28T17:19:24;4.80;99.90
3921;DHT22;1975;49.356;6.816;2023-02-28T17:21:50;4.80;99.90
3921;DHT22;1975;49.356;6.816;2023-02-28T17:24:15;4.80;99.90
3921;DHT22;1975;49.356;6.816;2023-02-28T17:26:41;4.80;99.90
3921;DHT22;1975;49.356;6.816;2023-02-28T17:29:17;4.80;99.90
3921;DHT22;1975;49.356;6.816;2023-02-28T17:31:43;4.70;99.90
3921;DHT22;1975;49.356;6.816;2023-02-28T17:34:09;4.70;99.90
3921;DHT22;1975;49.356;6.816;2023-02-28T17:36:35;4.70;99.90
3921;DHT22;1975;49.356;6.816;2023-02-28T17:39:03;4.70;99.90
3921;DHT22;1975;49.356;6.816;2023-02-28T17:41:28;4.70;99.90
3921;DHT22;1975;49.356;6.816;2023-02-28T17:43:56;4.70;99.90
3921;DHT22;1975;49.356;6.816;2023-02-28T17:46:22;4.70;99.90
3921;DHT22;1975;49.356;6.816;2023-02-28T17:48:48;4.70;99.90
3921;DHT22;1975;49.356;6.816;2023-02-28T17:51:14;4.60;99.90
3921;DHT22;1975;49.356;6.816;2023-02-28T17:53:39;4.60;99.90
3921;DHT22;1975;49.356;6.816;2023-02-28T17:56:08;4.60;99.90
3921;DHT22;1975;49.356;6.816;2023-02-28T17:58:36;4.60;99.90
3921;DHT22;1975;49.356;6.816;2023-02-28T18:01:01;4.60;99.90
3921;DHT22;1975;49.356;6.816;2023-02-28T18:03:27;4.60;99.90
3921;DHT22;1975;49.356;6.816;2023-02-28T18:05:53;4.60;99.90
3921;DHT22;1975;49.356;6.816;2023-02-28T18:08:18;4.60;99.90
3921;DHT22;1975;49.356;6.816;2023-02-28T18:10:44;4.60;99.90
3921;DHT22;1975;49.356;6.816;2023-02-28T18:13:10;4.60;99.90
3921;DHT22;1975;49.356;6.816;2023-02-28T18:15:37;4.60;99.90
3921;DHT22;1975;49.356;6.816;2023-02-28T18:18:03;4.60;99.90
3921;DHT22;1975;49.356;6.816;2023-02-28T18:20:30;4.60;99.90
3921;DHT22;1975;49.356;6.816;2023-02-28T18:22:55;4.50;99.90